KJCT - Junction/Kimble Cnty, TX, US

Issued at 2323 UTC 18 Oct 2019
Updated at 2328 UTC 18 Oct 2019
Potential Impact None Slight Moderate High
Time2251Z 19/00Z 19/01Z 19/02Z 19/03Z 19/04Z 19/05Z 19/06Z 19/07Z 19/08Z 19/09Z 19/10Z 19/11Z 19/12Z>>
Type OBS PRVL PRVL PRVL PRVL PRVL PRVL PRVL PRVL PRVL PRVL PRVL PRVL PRVL
VIS 10 >6 >6 >6 >6 >6 >6 >6 >6 >6 >6 >6 >6 >6
CIG -- -- -- -- -- -- -- -- -- -- -- -- -- --
Cover CLR SKC SCT SCT SCT SCT SCT SCT SCT SCT SCT SCT SCT SCT
FltCat VFR VFR VFR VFR VFR VFR VFR VFR VFR VFR VFR VFR VFR VFR
WX -- -- -- -- -- -- -- -- -- -- -- -- -- --
WDir 190 200 VRB VRB VRB VRB VRB VRB VRB VRB VRB VRB VRB VRB
WSpd 9 10 4 4 4 4 4 4 4 4 4 4 4 4
WGst -- -- -- -- -- -- -- -- -- -- -- -- -- --
Raw TAF
KJCT 182323Z 1900/1924 20010KT P6SM SKC
  FM190100 VRB04KT P6SM SCT080 SCT250
  FM191700 31010KT P6SM SKC


Raw METAR
KJCT 182251Z AUTO 19009KT 10SM CLR 30/12 A2970 RMK AO2 SLP028 T03000122
KJCT 182151Z AUTO 21010KT 10SM CLR 31/12 A2971 RMK AO2 SLP030 T03110122
KJCT 182051Z AUTO 18009KT 150V210 10SM CLR 31/11 A2972 RMK AO2 SLP032 T03060111 56032

METAR Board
Radar Display
Forecast Discussion
For situational awareness. Not to be used for flight planning purposes.